sensor_id;sensor_type;location;lat;lon;timestamp;temperature;humidity
46652;DHT22;32377;52.182;5.398;2024-01-15T00:01:43;1.60;99.90
46652;DHT22;32377;52.182;5.398;2024-01-15T00:04:09;1.60;99.90
46652;DHT22;32377;52.182;5.398;2024-01-15T00:06:35;1.50;99.90
46652;DHT22;32377;52.182;5.398;2024-01-15T00:09:00;1.50;99.90
46652;DHT22;32377;52.182;5.398;2024-01-15T00:11:26;1.40;99.90
46652;DHT22;32377;52.182;5.398;2024-01-15T00:13:52;1.40;99.90
46652;DHT22;32377;52.182;5.398;2024-01-15T00:16:18;1.40;99.90
46652;DHT22;32377;52.182;5.398;2024-01-15T00:18:43;1.40;99.90
46652;DHT22;32377;52.182;5.398;2024-01-15T00:21:09;1.40;99.90
46652;DHT22;32377;52.182;5.398;2024-01-15T00:23:35;1.30;99.90
46652;DHT22;32377;52.182;5.398;2024-01-15T00:26:01;1.50;99.90
46652;DHT22;32377;52.182;5.398;2024-01-15T00:28:26;1.40;99.90
46652;DHT22;32377;52.182;5.398;2024-01-15T00:30:52;1.40;99.90
46652;DHT22;32377;52.182;5.398;2024-01-15T00:33:18;1.40;99.90
46652;DHT22;32377;52.182;5.398;2024-01-15T00:35:43;1.40;99.90
46652;DHT22;32377;52.182;5.398;2024-01-15T00:38:09;1.40;99.90
46652;DHT22;32377;52.182;5.398;2024-01-15T00:40:34;1.40;99.90
46652;DHT22;32377;52.182;5.398;2024-01-15T00:43:00;1.40;99.90
46652;DHT22;32377;52.182;5.398;2024-01-15T00:45:25;1.40;99.90
46652;DHT22;32377;52.182;5.398;2024-01-15T00:47:51;1.40;99.90
46652;DHT22;32377;52.182;5.398;2024-01-15T00:50:16;1.30;99.90
46652;DHT22;32377;52.182;5.398;2024-01-15T00:52:42;1.20;99.90
46652;DHT22;32377;52.182;5.398;2024-01-15T00:55:08;1.30;99.90
46652;DHT22;32377;52.182;5.398;2024-01-15T00:57:34;1.30;99.90
46652;DHT22;32377;52.182;5.398;2024-01-15T00:59:59;1.30;99.90
46652;DHT22;32377;52.182;5.398;2024-01-15T01:02:26;1.30;99.90
46652;DHT22;32377;52.182;5.398;2024-01-15T01:04:51;1.30;99.90
46652;DHT22;32377;52.182;5.398;2024-01-15T01:07:17;1.30;99.90
46652;DHT22;32377;52.182;5.398;2024-01-15T01:09:42;1.30;99.90
46652;DHT22;32377;52.182;5.398;2024-01-15T01:12:09;1.20;99.90
46652;DHT22;32377;52.182;5.398;2024-01-15T01:14:35;1.20;99.90
46652;DHT22;32377;52.182;5.398;2024-01-15T01:17:00;1.20;99.90
46652;DHT22;32377;52.182;5.398;2024-01-15T01:19:26;1.20;99.90
46652;DHT22;32377;52.182;5.398;2024-01-15T01:21:52;1.20;99.90
46652;DHT22;32377;52.182;5.398;2024-01-15T01:24:17;1.10;99.90
46652;DHT22;32377;52.182;5.398;2024-01-15T01:26:43;1.10;99.90
46652;DHT22;32377;52.182;5.398;2024-01-15T01:29:08;1.20;99.90
46652;DHT22;32377;52.182;5.398;2024-01-15T01:31:34;1.40;99.90
46652;DHT22;32377;52.182;5.398;2024-01-15T01:33:59;1.40;99.90
46652;DHT22;32377;52.182;5.398;2024-01-15T01:36:25;1.50;99.90
46652;DHT22;32377;52.182;5.398;2024-01-15T01:38:50;1.50;99.90
46652;DHT22;32377;52.182;5.398;2024-01-15T01:41:16;1.40;99.90
46652;DHT22;32377;52.182;5.398;2024-01-15T01:43:42;1.30;99.90
46652;DHT22;32377;52.182;5.398;2024-01-15T01:46:08;1.30;99.90
46652;DHT22;32377;52.182;5.398;2024-01-15T01:48:34;1.20;99.90
46652;DHT22;32377;52.182;5.398;2024-01-15T01:51:02;1.10;99.90
46652;DHT22;32377;52.182;5.398;2024-01-15T01:53:29;1.10;99.90
46652;DHT22;32377;52.182;5.398;2024-01-15T01:55:57;1.00;99.90
46652;DHT22;32377;52.182;5.398;2024-01-15T01:58:22;1.00;99.90
46652;DHT22;32377;52.182;5.398;2024-01-15T02:00:48;1.10;99.90
46652;DHT22;32377;52.182;5.398;2024-01-15T02:03:14;1.20;99.90
46652;DHT22;32377;52.182;5.398;2024-01-15T02:05:42;1.20;99.90
46652;DHT22;32377;52.182;5.398;2024-01-15T02:08:08;1.30;99.90
46652;DHT22;32377;52.182;5.398;2024-01-15T02:10:33;1.50;99.90
46652;DHT22;32377;52.182;5.398;2024-01-15T02:12:59;1.50;99.90
46652;DHT22;32377;52.182;5.398;2024-01-15T02:15:25;1.60;99.90
46652;DHT22;32377;52.182;5.398;2024-01-15T02:18:00;1.60;99.90
46652;DHT22;32377;52.182;5.398;2024-01-15T02:20:26;1.60;99.90
46652;DHT22;32377;52.182;5.398;2024-01-15T02:22:52;1.60;99.90
46652;DHT22;32377;52.182;5.398;2024-01-15T02:25:18;1.60;99.90
46652;DHT22;32377;52.182;5.398;2024-01-15T02:27:44;1.60;99.90
46652;DHT22;32377;52.182;5.398;2024-01-15T02:30:11;1.70;99.90
46652;DHT22;32377;52.182;5.398;2024-01-15T02:32:38;1.60;99.90
46652;DHT22;32377;52.182;5.398;2024-01-15T02:35:04;1.60;99.90
46652;DHT22;32377;52.182;5.398;2024-01-15T02:37:29;1.70;99.90
46652;DHT22;32377;52.182;5.398;2024-01-15T02:39:55;1.60;99.90
46652;DHT22;32377;52.182;5.398;2024-01-15T02:42:20;1.70;99.90
46652;DHT22;32377;52.182;5.398;2024-01-15T02:44:46;1.60;99.90
46652;DHT22;32377;52.182;5.398;2024-01-15T02:47:14;1.70;99.90
46652;DHT22;32377;52.182;5.398;2024-01-15T02:49:39;1.70;99.90
46652;DHT22;32377;52.182;5.398;2024-01-15T02:52:05;1.70;99.90
46652;DHT22;32377;52.182;5.398;2024-01-15T02:54:31;1.80;99.90
46652;DHT22;32377;52.182;5.398;2024-01-15T02:56:56;1.80;99.90
46652;DHT22;32377;52.182;5.398;2024-01-15T02:59:22;1.60;99.90
46652;DHT22;32377;52.182;5.398;2024-01-15T03:01:47;1.70;99.90
46652;DHT22;32377;52.182;5.398;2024-01-15T03:04:13;1.70;99.90
46652;DHT22;32377;52.182;5.398;2024-01-15T03:06:38;1.60;99.90
46652;DHT22;32377;52.182;5.398;2024-01-15T03:09:04;1.80;99.90
46652;DHT22;32377;52.182;5.398;2024-01-15T03:11:37;1.80;99.90
46652;DHT22;32377;52.182;5.398;2024-01-15T03:14:02;1.90;99.90
46652;DHT22;32377;52.182;5.398;2024-01-15T03:16:28;1.90;99.90
46652;DHT22;32377;52.182;5.398;2024-01-15T03:18:53;1.90;99.90
46652;DHT22;32377;52.182;5.398;2024-01-15T03:21:19;1.90;99.90
46652;DHT22;32377;52.182;5.398;2024-01-15T03:23:44;1.90;99.90
46652;DHT22;32377;52.182;5.398;2024-01-15T03:26:10;1.90;99.90
46652;DHT22;32377;52.182;5.398;2024-01-15T03:28:36;2.10;99.90
46652;DHT22;32377;52.182;5.398;2024-01-15T03:31:01;2.00;99.90
46652;DHT22;32377;52.182;5.398;2024-01-15T03:33:27;2.20;99.90
46652;DHT22;32377;52.182;5.398;2024-01-15T03:35:52;2.20;99.90
46652;DHT22;32377;52.182;5.398;2024-01-15T03:38:18;2.20;99.90
46652;DHT22;32377;52.182;5.398;2024-01-15T03:40:43;2.20;99.90
46652;DHT22;32377;52.182;5.398;2024-01-15T03:43:09;2.20;99.90
46652;DHT22;32377;52.182;5.398;2024-01-15T03:45:34;2.20;99.90
46652;DHT22;32377;52.182;5.398;2024-01-15T03:48:00;2.10;99.90
46652;DHT22;32377;52.182;5.398;2024-01-15T03:50:26;2.10;99.90
46652;DHT22;32377;52.182;5.398;2024-01-15T03:52:51;2.00;99.90
46652;DHT22;32377;52.182;5.398;2024-01-15T03:55:17;1.80;99.90
46652;DHT22;32377;52.182;5.398;2024-01-15T03:57:42;1.60;99.90
46652;DHT22;32377;52.182;5.398;2024-01-15T04:00:08;1.60;99.90
46652;DHT22;32377;52.182;5.398;2024-01-15T04:02:34;1.40;99.90
46652;DHT22;32377;52.182;5.398;2024-01-15T04:04:59;1.40;99.90
46652;DHT22;32377;52.182;5.398;2024-01-15T04:07:25;1.40;99.90
46652;DHT22;32377;52.182;5.398;2024-01-15T04:09:50;1.30;99.90
46652;DHT22;32377;52.182;5.398;2024-01-15T04:12:16;1.40;99.90
46652;DHT22;32377;52.182;5.398;2024-01-15T04:14:42;1.40;99.90
46652;DHT22;32377;52.182;5.398;2024-01-15T04:17:07;1.30;99.90
46652;DHT22;32377;52.182;5.398;2024-01-15T04:19:33;1.30;99.90
46652;DHT22;32377;52.182;5.398;2024-01-15T04:21:58;1.30;99.90
46652;DHT22;32377;52.182;5.398;2024-01-15T04:24:24;1.30;99.90
46652;DHT22;32377;52.182;5.398;2024-01-15T04:26:49;1.30;99.90
46652;DHT22;32377;52.182;5.398;2024-01-15T04:29:15;1.30;99.90
46652;DHT22;32377;52.182;5.398;2024-01-15T04:31:41;1.20;99.90
46652;DHT22;32377;52.182;5.398;2024-01-15T04:34:07;1.20;99.90
46652;DHT22;32377;52.182;5.398;2024-01-15T04:36:38;1.30;99.90
46652;DHT22;32377;52.182;5.398;2024-01-15T04:39:04;1.20;99.90
46652;DHT22;32377;52.182;5.398;2024-01-15T04:41:30;1.20;99.90
46652;DHT22;32377;52.182;5.398;2024-01-15T04:43:55;1.30;99.90
46652;DHT22;32377;52.182;5.398;2024-01-15T04:46:21;1.30;99.90
46652;DHT22;32377;52.182;5.398;2024-01-15T04:48:46;1.30;99.90
46652;DHT22;32377;52.182;5.398;2024-01-15T04:51:12;1.30;99.90
46652;DHT22;32377;52.182;5.398;2024-01-15T04:53:38;1.40;99.90
46652;DHT22;32377;52.182;5.398;2024-01-15T04:59:17;1.50;99.90
46652;DHT22;32377;52.182;5.398;2024-01-15T05:01:43;1.60;99.90
46652;DHT22;32377;52.182;5.398;2024-01-15T05:04:08;1.70;99.90
46652;DHT22;32377;52.182;5.398;2024-01-15T05:06:34;1.70;99.90
46652;DHT22;32377;52.182;5.398;2024-01-15T05:09:00;1.70;99.90
46652;DHT22;32377;52.182;5.398;2024-01-15T05:11:25;1.70;99.90
46652;DHT22;32377;52.182;5.398;2024-01-15T05:13:51;1.70;99.90
46652;DHT22;32377;52.182;5.398;2024-01-15T05:16:17;1.70;99.90
46652;DHT22;32377;52.182;5.398;2024-01-15T05:18:42;1.80;99.90
46652;DHT22;32377;52.182;5.398;2024-01-15T05:21:09;1.70;99.90
46652;DHT22;32377;52.182;5.398;2024-01-15T05:23:34;1.70;99.90
46652;DHT22;32377;52.182;5.398;2024-01-15T05:26:00;1.60;99.90
46652;DHT22;32377;52.182;5.398;2024-01-15T05:28:25;1.60;99.90
46652;DHT22;32377;52.182;5.398;2024-01-15T05:30:51;1.60;99.90
46652;DHT22;32377;52.182;5.398;2024-01-15T05:33:17;1.60;99.90
46652;DHT22;32377;52.182;5.398;2024-01-15T05:35:43;1.60;99.90
46652;DHT22;32377;52.182;5.398;2024-01-15T05:38:09;1.70;99.90
46652;DHT22;32377;52.182;5.398;2024-01-15T05:40:34;1.80;99.90
46652;DHT22;32377;52.182;5.398;2024-01-15T05:43:00;1.80;99.90
46652;DHT22;32377;52.182;5.398;2024-01-15T05:45:30;1.90;99.90
46652;DHT22;32377;52.182;5.398;2024-01-15T05:47:56;1.90;99.90
46652;DHT22;32377;52.182;5.398;2024-01-15T05:50:22;2.00;99.90
46652;DHT22;32377;52.182;5.398;2024-01-15T05:52:48;1.90;99.90
46652;DHT22;32377;52.182;5.398;2024-01-15T05:55:13;2.00;99.90
46652;DHT22;32377;52.182;5.398;2024-01-15T05:57:39;2.10;99.90
46652;DHT22;32377;52.182;5.398;2024-01-15T06:00:05;2.00;99.90
46652;DHT22;32377;52.182;5.398;2024-01-15T06:02:31;2.00;99.90
46652;DHT22;32377;52.182;5.398;2024-01-15T06:04:57;1.90;99.90
46652;DHT22;32377;52.182;5.398;2024-01-15T06:07:22;1.70;99.90
46652;DHT22;32377;52.182;5.398;2024-01-15T06:09:48;1.50;99.90
46652;DHT22;32377;52.182;5.398;2024-01-15T06:12:14;1.50;99.90
46652;DHT22;32377;52.182;5.398;2024-01-15T06:14:39;1.30;99.90
46652;DHT22;32377;52.182;5.398;2024-01-15T06:17:07;1.40;99.90
46652;DHT22;32377;52.182;5.398;2024-01-15T06:19:32;1.40;99.90
46652;DHT22;32377;52.182;5.398;2024-01-15T06:21:58;1.30;99.90
46652;DHT22;32377;52.182;5.398;2024-01-15T06:24:23;1.40;99.90
46652;DHT22;32377;52.182;5.398;2024-01-15T06:26:49;1.30;99.90
46652;DHT22;32377;52.182;5.398;2024-01-15T06:29:15;1.30;99.90
46652;DHT22;32377;52.182;5.398;2024-01-15T06:31:40;1.40;99.90
46652;DHT22;32377;52.182;5.398;2024-01-15T06:34:06;1.30;99.90
46652;DHT22;32377;52.182;5.398;2024-01-15T06:36:31;1.40;99.90
46652;DHT22;32377;52.182;5.398;2024-01-15T06:38:57;1.40;99.90
46652;DHT22;32377;52.182;5.398;2024-01-15T06:41:22;1.40;99.90
46652;DHT22;32377;52.182;5.398;2024-01-15T06:43:48;1.30;99.90
46652;DHT22;32377;52.182;5.398;2024-01-15T06:46:23;1.30;99.90
46652;DHT22;32377;52.182;5.398;2024-01-15T06:48:49;1.30;99.90
46652;DHT22;32377;52.182;5.398;2024-01-15T06:51:15;1.30;99.90
46652;DHT22;32377;52.182;5.398;2024-01-15T06:53:41;1.20;99.90
46652;DHT22;32377;52.182;5.398;2024-01-15T06:56:07;1.20;99.90
46652;DHT22;32377;52.182;5.398;2024-01-15T06:58:33;1.30;99.90
46652;DHT22;32377;52.182;5.398;2024-01-15T07:00:59;1.20;99.90
46652;DHT22;32377;52.182;5.398;2024-01-15T07:03:24;1.30;99.90
46652;DHT22;32377;52.182;5.398;2024-01-15T07:05:50;1.40;99.90
46652;DHT22;32377;52.182;5.398;2024-01-15T07:08:16;1.40;99.90
46652;DHT22;32377;52.182;5.398;2024-01-15T07:10:41;1.40;99.90
46652;DHT22;32377;52.182;5.398;2024-01-15T07:13:07;1.40;99.90
46652;DHT22;32377;52.182;5.398;2024-01-15T07:15:33;1.50;99.90
46652;DHT22;32377;52.182;5.398;2024-01-15T07:17:58;1.50;99.90
46652;DHT22;32377;52.182;5.398;2024-01-15T07:20:24;1.50;99.90
46652;DHT22;32377;52.182;5.398;2024-01-15T07:22:49;1.50;99.90
46652;DHT22;32377;52.182;5.398;2024-01-15T07:25:16;1.40;99.90
46652;DHT22;32377;52.182;5.398;2024-01-15T07:27:41;1.40;99.90
46652;DHT22;32377;52.182;5.398;2024-01-15T07:30:10;1.40;99.90
46652;DHT22;32377;52.182;5.398;2024-01-15T07:32:37;1.30;99.90
46652;DHT22;32377;52.182;5.398;2024-01-15T07:35:03;1.40;99.90
46652;DHT22;32377;52.182;5.398;2024-01-15T07:37:29;1.40;99.90
46652;DHT22;32377;52.182;5.398;2024-01-15T07:39:54;1.40;99.90
46652;DHT22;32377;52.182;5.398;2024-01-15T07:42:20;1.50;99.90
46652;DHT22;32377;52.182;5.398;2024-01-15T07:44:45;1.40;99.90
46652;DHT22;32377;52.182;5.398;2024-01-15T07:47:11;1.40;99.90
46652;DHT22;32377;52.182;5.398;2024-01-15T07:49:37;1.60;99.90
46652;DHT22;32377;52.182;5.398;2024-01-15T07:52:03;1.60;99.90
46652;DHT22;32377;52.182;5.398;2024-01-15T07:54:30;1.60;99.90
46652;DHT22;32377;52.182;5.398;2024-01-15T07:57:02;1.50;99.90
46652;DHT22;32377;52.182;5.398;2024-01-15T07:59:29;1.50;99.90
46652;DHT22;32377;52.182;5.398;2024-01-15T08:01:54;1.40;99.90
46652;DHT22;32377;52.182;5.398;2024-01-15T08:04:20;1.50;99.90
46652;DHT22;32377;52.182;5.398;2024-01-15T08:06:47;1.40;99.90
46652;DHT22;32377;52.182;5.398;2024-01-15T08:09:13;1.30;99.90
46652;DHT22;32377;52.182;5.398;2024-01-15T08:11:40;1.20;99.90
46652;DHT22;32377;52.182;5.398;2024-01-15T08:14:09;1.20;99.90
46652;DHT22;32377;52.182;5.398;2024-01-15T08:16:36;1.30;99.90
46652;DHT22;32377;52.182;5.398;2024-01-15T08:19:01;1.30;99.90
46652;DHT22;32377;52.182;5.398;2024-01-15T08:21:27;1.20;99.90
46652;DHT22;32377;52.182;5.398;2024-01-15T08:23:57;1.30;99.90
46652;DHT22;32377;52.182;5.398;2024-01-15T08:26:23;1.40;99.90
46652;DHT22;32377;52.182;5.398;2024-01-15T08:28:49;1.40;99.90
46652;DHT22;32377;52.182;5.398;2024-01-15T08:31:14;1.40;99.90
46652;DHT22;32377;52.182;5.398;2024-01-15T08:33:40;1.50;99.90
46652;DHT22;32377;52.182;5.398;2024-01-15T08:36:06;1.40;99.90
46652;DHT22;32377;52.182;5.398;2024-01-15T08:38:32;1.40;99.90
46652;DHT22;32377;52.182;5.398;2024-01-15T08:40:57;1.40;99.90
46652;DHT22;32377;52.182;5.398;2024-01-15T08:43:26;1.40;99.90
46652;DHT22;32377;52.182;5.398;2024-01-15T08:45:52;1.30;99.90
46652;DHT22;32377;52.182;5.398;2024-01-15T08:48:17;1.30;99.90
46652;DHT22;32377;52.182;5.398;2024-01-15T08:50:43;1.30;99.90
46652;DHT22;32377;52.182;5.398;2024-01-15T08:53:11;1.30;99.90
46652;DHT22;32377;52.182;5.398;2024-01-15T08:55:37;1.20;99.90
46652;DHT22;32377;52.182;5.398;2024-01-15T08:58:03;1.40;99.90
46652;DHT22;32377;52.182;5.398;2024-01-15T09:00:29;1.40;99.90
46652;DHT22;32377;52.182;5.398;2024-01-15T09:02:55;1.50;99.90
46652;DHT22;32377;52.182;5.398;2024-01-15T09:05:22;1.60;99.90
46652;DHT22;32377;52.182;5.398;2024-01-15T09:07:48;1.70;99.90
46652;DHT22;32377;52.182;5.398;2024-01-15T09:10:14;1.80;99.90
46652;DHT22;32377;52.182;5.398;2024-01-15T09:12:39;1.80;99.90
46652;DHT22;32377;52.182;5.398;2024-01-15T09:15:05;2.00;99.90
46652;DHT22;32377;52.182;5.398;2024-01-15T09:17:32;2.00;99.90
46652;DHT22;32377;52.182;5.398;2024-01-15T09:19:58;2.00;99.90
46652;DHT22;32377;52.182;5.398;2024-01-15T09:22:23;1.90;99.90
46652;DHT22;32377;52.182;5.398;2024-01-15T09:24:49;1.90;99.90
46652;DHT22;32377;52.182;5.398;2024-01-15T09:27:15;1.70;99.90
46652;DHT22;32377;52.182;5.398;2024-01-15T09:29:42;1.70;99.90
46652;DHT22;32377;52.182;5.398;2024-01-15T09:32:09;1.60;99.90
46652;DHT22;32377;52.182;5.398;2024-01-15T09:34:35;1.60;99.90
46652;DHT22;32377;52.182;5.398;2024-01-15T09:37:00;1.50;99.90
46652;DHT22;32377;52.182;5.398;2024-01-15T09:39:27;1.50;99.90
46652;DHT22;32377;52.182;5.398;2024-01-15T09:41:54;1.50;99.90
46652;DHT22;32377;52.182;5.398;2024-01-15T09:44:20;1.60;99.90
46652;DHT22;32377;52.182;5.398;2024-01-15T09:46:46;1.70;99.90
46652;DHT22;32377;52.182;5.398;2024-01-15T09:49:15;1.90;99.90
46652;DHT22;32377;52.182;5.398;2024-01-15T09:51:41;2.10;99.90
46652;DHT22;32377;52.182;5.398;2024-01-15T09:54:07;2.20;99.90
46652;DHT22;32377;52.182;5.398;2024-01-15T09:56:34;2.10;99.90
46652;DHT22;32377;52.182;5.398;2024-01-15T09:59:00;2.20;99.90
46652;DHT22;32377;52.182;5.398;2024-01-15T10:01:26;2.20;99.90
46652;DHT22;32377;52.182;5.398;2024-01-15T10:03:52;2.20;99.90
46652;DHT22;32377;52.182;5.398;2024-01-15T10:06:19;2.30;99.90
46652;DHT22;32377;52.182;5.398;2024-01-15T10:08:51;2.40;99.90
46652;DHT22;32377;52.182;5.398;2024-01-15T10:11:17;2.40;99.90
46652;DHT22;32377;52.182;5.398;2024-01-15T10:13:46;2.50;99.90
46652;DHT22;32377;52.182;5.398;2024-01-15T10:16:12;2.40;99.90
46652;DHT22;32377;52.182;5.398;2024-01-15T10:18:37;2.50;99.90
46652;DHT22;32377;52.182;5.398;2024-01-15T10:21:06;2.50;99.90
46652;DHT22;32377;52.182;5.398;2024-01-15T10:23:32;2.80;99.90
46652;DHT22;32377;52.182;5.398;2024-01-15T10:25:58;2.80;99.90
46652;DHT22;32377;52.182;5.398;2024-01-15T10:28:26;2.60;99.90
46652;DHT22;32377;52.182;5.398;2024-01-15T10:30:55;2.40;99.90
46652;DHT22;32377;52.182;5.398;2024-01-15T10:33:23;2.30;99.90
46652;DHT22;32377;52.182;5.398;2024-01-15T10:36:00;2.30;99.90
46652;DHT22;32377;52.182;5.398;2024-01-15T10:38:26;2.30;99.90
46652;DHT22;32377;52.182;5.398;2024-01-15T10:40:56;2.20;99.90
46652;DHT22;32377;52.182;5.398;2024-01-15T10:43:22;2.20;99.90
46652;DHT22;32377;52.182;5.398;2024-01-15T10:45:50;2.20;99.90
46652;DHT22;32377;52.182;5.398;2024-01-15T10:48:17;2.30;99.90
46652;DHT22;32377;52.182;5.398;2024-01-15T10:50:44;2.40;99.90
46652;DHT22;32377;52.182;5.398;2024-01-15T10:53:12;2.30;99.90
46652;DHT22;32377;52.182;5.398;2024-01-15T10:55:38;2.40;99.90
46652;DHT22;32377;52.182;5.398;2024-01-15T10:59:20;2.30;99.90
46652;DHT22;32377;52.182;5.398;2024-01-15T11:01:46;2.40;99.90
46652;DHT22;32377;52.182;5.398;2024-01-15T11:04:12;2.70;99.90
46652;DHT22;32377;52.182;5.398;2024-01-15T11:06:46;2.80;99.90
46652;DHT22;32377;52.182;5.398;2024-01-15T11:09:12;2.60;99.90
46652;DHT22;32377;52.182;5.398;2024-01-15T11:11:41;2.40;99.90
46652;DHT22;32377;52.182;5.398;2024-01-15T11:14:07;2.40;99.90
46652;DHT22;32377;52.182;5.398;2024-01-15T11:16:55;2.40;99.90
46652;DHT22;32377;52.182;5.398;2024-01-15T11:22:09;2.30;99.90
46652;DHT22;32377;52.182;5.398;2024-01-15T11:24:39;2.30;99.90
46652;DHT22;32377;52.182;5.398;2024-01-15T11:27:06;2.30;99.90
46652;DHT22;32377;52.182;5.398;2024-01-15T11:29:36;2.40;99.90
46652;DHT22;32377;52.182;5.398;2024-01-15T11:32:09;2.40;99.90
46652;DHT22;32377;52.182;5.398;2024-01-15T11:34:57;2.50;99.90
46652;DHT22;32377;52.182;5.398;2024-01-15T11:37:25;2.50;99.90
46652;DHT22;32377;52.182;5.398;2024-01-15T11:39:52;2.60;99.90
46652;DHT22;32377;52.182;5.398;2024-01-15T11:42:20;2.60;99.90
46652;DHT22;32377;52.182;5.398;2024-01-15T11:44:46;2.70;99.90
46652;DHT22;32377;52.182;5.398;2024-01-15T11:47:12;2.80;99.90
46652;DHT22;32377;52.182;5.398;2024-01-15T11:50:02;2.80;99.90
46652;DHT22;32377;52.182;5.398;2024-01-15T11:52:33;2.80;99.90
46652;DHT22;32377;52.182;5.398;2024-01-15T11:55:29;2.70;99.90
46652;DHT22;32377;52.182;5.398;2024-01-15T11:57:55;2.80;99.90
46652;DHT22;32377;52.182;5.398;2024-01-15T12:00:23;2.90;99.90
46652;DHT22;32377;52.182;5.398;2024-01-15T12:02:49;3.00;99.90
46652;DHT22;32377;52.182;5.398;2024-01-15T12:05:17;3.20;99.90
46652;DHT22;32377;52.182;5.398;2024-01-15T12:07:47;3.10;99.90
46652;DHT22;32377;52.182;5.398;2024-01-15T12:10:15;3.00;99.90
46652;DHT22;32377;52.182;5.398;2024-01-15T12:13:00;2.90;99.90
46652;DHT22;32377;52.182;5.398;2024-01-15T12:15:28;2.50;99.90
46652;DHT22;32377;52.182;5.398;2024-01-15T12:17:58;2.30;99.90
46652;DHT22;32377;52.182;5.398;2024-01-15T12:20:25;2.20;99.90
46652;DHT22;32377;52.182;5.398;2024-01-15T12:22:51;2.30;99.90
46652;DHT22;32377;52.182;5.398;2024-01-15T12:25:17;2.30;99.90
46652;DHT22;32377;52.182;5.398;2024-01-15T12:27:43;2.30;99.90
46652;DHT22;32377;52.182;5.398;2024-01-15T12:30:12;2.40;99.90
46652;DHT22;32377;52.182;5.398;2024-01-15T12:32:37;2.50;99.90
46652;DHT22;32377;52.182;5.398;2024-01-15T12:35:03;2.50;99.90
46652;DHT22;32377;52.182;5.398;2024-01-15T12:37:30;2.60;99.90
46652;DHT22;32377;52.182;5.398;2024-01-15T12:39:55;2.60;99.90
46652;DHT22;32377;52.182;5.398;2024-01-15T12:42:21;2.50;99.90
46652;DHT22;32377;52.182;5.398;2024-01-15T12:44:47;2.40;99.90
46652;DHT22;32377;52.182;5.398;2024-01-15T12:47:13;2.30;99.90
46652;DHT22;32377;52.182;5.398;2024-01-15T12:49:39;2.20;99.90
46652;DHT22;32377;52.182;5.398;2024-01-15T12:52:08;2.20;99.90
46652;DHT22;32377;52.182;5.398;2024-01-15T12:54:34;2.30;99.90
46652;DHT22;32377;52.182;5.398;2024-01-15T12:56:59;2.30;99.90
46652;DHT22;32377;52.182;5.398;2024-01-15T12:59:25;2.40;99.90
46652;DHT22;32377;52.182;5.398;2024-01-15T13:01:50;2.50;99.90
46652;DHT22;32377;52.182;5.398;2024-01-15T13:04:23;2.40;99.90
46652;DHT22;32377;52.182;5.398;2024-01-15T13:06:52;2.40;99.90
46652;DHT22;32377;52.182;5.398;2024-01-15T13:09:18;2.40;99.90
46652;DHT22;32377;52.182;5.398;2024-01-15T13:11:47;2.30;99.90
46652;DHT22;32377;52.182;5.398;2024-01-15T13:14:13;2.30;99.90
46652;DHT22;32377;52.182;5.398;2024-01-15T13:16:40;2.20;99.90
46652;DHT22;32377;52.182;5.398;2024-01-15T13:19:10;2.30;99.90
46652;DHT22;32377;52.182;5.398;2024-01-15T13:21:42;2.20;99.90
46652;DHT22;32377;52.182;5.398;2024-01-15T13:24:08;2.20;99.90
46652;DHT22;32377;52.182;5.398;2024-01-15T13:26:34;2.30;99.90
46652;DHT22;32377;52.182;5.398;2024-01-15T13:29:01;2.30;99.90
46652;DHT22;32377;52.182;5.398;2024-01-15T13:31:30;2.40;99.90
46652;DHT22;32377;52.182;5.398;2024-01-15T13:33:56;2.40;99.90
46652;DHT22;32377;52.182;5.398;2024-01-15T13:36:22;2.50;99.90
46652;DHT22;32377;52.182;5.398;2024-01-15T13:38:49;2.50;99.90
46652;DHT22;32377;52.182;5.398;2024-01-15T13:41:15;2.60;99.90
46652;DHT22;32377;52.182;5.398;2024-01-15T13:43:41;2.80;99.90
46652;DHT22;32377;52.182;5.398;2024-01-15T13:46:07;3.00;99.90
46652;DHT22;32377;52.182;5.398;2024-01-15T13:48:32;3.00;99.90
46652;DHT22;32377;52.182;5.398;2024-01-15T13:50:58;3.00;99.90
46652;DHT22;32377;52.182;5.398;2024-01-15T13:53:25;2.90;99.90
46652;DHT22;32377;52.182;5.398;2024-01-15T13:55:51;2.80;99.90
46652;DHT22;32377;52.182;5.398;2024-01-15T13:58:16;2.80;99.90
46652;DHT22;32377;52.182;5.398;2024-01-15T14:00:43;2.80;99.90
46652;DHT22;32377;52.182;5.398;2024-01-15T14:03:09;2.70;99.90
46652;DHT22;32377;52.182;5.398;2024-01-15T14:05:36;2.70;99.90
46652;DHT22;32377;52.182;5.398;2024-01-15T14:08:01;2.60;99.90
46652;DHT22;32377;52.182;5.398;2024-01-15T14:10:28;2.60;99.90
46652;DHT22;32377;52.182;5.398;2024-01-15T14:12:54;2.70;99.90
46652;DHT22;32377;52.182;5.398;2024-01-15T14:15:19;2.80;99.90
46652;DHT22;32377;52.182;5.398;2024-01-15T14:17:46;2.80;99.90
46652;DHT22;32377;52.182;5.398;2024-01-15T14:20:12;2.70;99.90
46652;DHT22;32377;52.182;5.398;2024-01-15T14:22:38;2.70;99.90
46652;DHT22;32377;52.182;5.398;2024-01-15T14:25:04;2.70;99.90
46652;DHT22;32377;52.182;5.398;2024-01-15T14:27:30;2.80;99.90
46652;DHT22;32377;52.182;5.398;2024-01-15T14:29:55;2.80;99.90
46652;DHT22;32377;52.182;5.398;2024-01-15T14:32:21;2.90;99.90
46652;DHT22;32377;52.182;5.398;2024-01-15T14:34:46;3.00;99.90
46652;DHT22;32377;52.182;5.398;2024-01-15T14:37:13;3.10;99.90
46652;DHT22;32377;52.182;5.398;2024-01-15T14:39:39;3.20;99.90
46652;DHT22;32377;52.182;5.398;2024-01-15T14:42:04;3.20;99.90
46652;DHT22;32377;52.182;5.398;2024-01-15T14:44:30;3.00;27.60
46652;DHT22;32377;52.182;5.398;2024-01-15T14:46:55;3.00;1.00
46652;DHT22;32377;52.182;5.398;2024-01-15T14:49:23;3.00;99.90
46652;DHT22;32377;52.182;5.398;2024-01-15T14:51:50;2.90;99.90
46652;DHT22;32377;52.182;5.398;2024-01-15T14:54:16;2.90;99.90
46652;DHT22;32377;52.182;5.398;2024-01-15T14:56:41;2.90;99.90
46652;DHT22;32377;52.182;5.398;2024-01-15T14:59:09;2.90;99.90
46652;DHT22;32377;52.182;5.398;2024-01-15T15:01:34;2.80;99.90
46652;DHT22;32377;52.182;5.398;2024-01-15T15:04:00;2.80;99.90
46652;DHT22;32377;52.182;5.398;2024-01-15T15:06:26;2.70;1.00
46652;DHT22;32377;52.182;5.398;2024-01-15T15:08:53;2.50;1.00
46652;DHT22;32377;52.182;5.398;2024-01-15T15:11:25;2.40;1.00
46652;DHT22;32377;52.182;5.398;2024-01-15T15:13:51;2.40;1.00
46652;DHT22;32377;52.182;5.398;2024-01-15T15:16:17;2.40;21.80
46652;DHT22;32377;52.182;5.398;2024-01-15T15:18:43;2.40;10.00
46652;DHT22;32377;52.182;5.398;2024-01-15T15:21:09;2.40;1.00
46652;DHT22;32377;52.182;5.398;2024-01-15T15:23:35;2.40;1.00
46652;DHT22;32377;52.182;5.398;2024-01-15T15:26:01;2.50;99.90
46652;DHT22;32377;52.182;5.398;2024-01-15T15:28:27;2.60;99.90
46652;DHT22;32377;52.182;5.398;2024-01-15T15:30:53;2.70;99.90
46652;DHT22;32377;52.182;5.398;2024-01-15T15:33:18;2.90;1.00
46652;DHT22;32377;52.182;5.398;2024-01-15T15:35:44;3.00;1.00
46652;DHT22;32377;52.182;5.398;2024-01-15T15:38:10;2.90;1.00
46652;DHT22;32377;52.182;5.398;2024-01-15T15:40:35;2.70;1.00
46652;DHT22;32377;52.182;5.398;2024-01-15T15:43:01;2.60;1.00
46652;DHT22;32377;52.182;5.398;2024-01-15T15:45:27;2.50;59.60
46652;DHT22;32377;52.182;5.398;2024-01-15T15:47:53;2.50;82.90
46652;DHT22;32377;52.182;5.398;2024-01-15T15:50:18;2.60;90.60